sensor_id;sensor_type;location;lat;lon;timestamp;temperature;humidity
41668;DHT22;27356;50.920;5.350;2022-10-31T00:01:26;14.00;99.90
41668;DHT22;27356;50.920;5.350;2022-10-31T00:03:52;14.00;99.90
41668;DHT22;27356;50.920;5.350;2022-10-31T00:06:18;14.00;99.90
41668;DHT22;27356;50.920;5.350;2022-10-31T00:08:47;14.10;99.90
41668;DHT22;27356;50.920;5.350;2022-10-31T00:11:13;14.10;99.90
41668;DHT22;27356;50.920;5.350;2022-10-31T00:13:38;14.10;99.90
41668;DHT22;27356;50.920;5.350;2022-10-31T00:16:04;14.10;99.90
41668;DHT22;27356;50.920;5.350;2022-10-31T00:18:30;14.10;99.90
41668;DHT22;27356;50.920;5.350;2022-10-31T00:20:59;14.10;99.90
41668;DHT22;27356;50.920;5.350;2022-10-31T00:23:25;14.10;99.90
41668;DHT22;27356;50.920;5.350;2022-10-31T00:25:50;14.10;99.90
41668;DHT22;27356;50.920;5.350;2022-10-31T00:28:16;14.10;99.90
41668;DHT22;27356;50.920;5.350;2022-10-31T00:30:41;14.10;99.90
41668;DHT22;27356;50.920;5.350;2022-10-31T00:33:07;14.00;99.90
41668;DHT22;27356;50.920;5.350;2022-10-31T00:35:32;14.10;99.90
41668;DHT22;27356;50.920;5.350;2022-10-31T00:37:58;14.10;99.90
41668;DHT22;27356;50.920;5.350;2022-10-31T00:40:23;14.10;99.90
41668;DHT22;27356;50.920;5.350;2022-10-31T00:42:49;14.10;99.90
41668;DHT22;27356;50.920;5.350;2022-10-31T00:45:14;14.00;99.90
41668;DHT22;27356;50.920;5.350;2022-10-31T00:47:40;14.10;99.90
41668;DHT22;27356;50.920;5.350;2022-10-31T00:50:06;14.10;99.90
41668;DHT22;27356;50.920;5.350;2022-10-31T00:52:31;14.00;99.90
41668;DHT22;27356;50.920;5.350;2022-10-31T00:54:57;14.10;99.90
41668;DHT22;27356;50.920;5.350;2022-10-31T00:57:22;14.10;99.90
41668;DHT22;27356;50.920;5.350;2022-10-31T00:59:48;14.10;99.90
41668;DHT22;27356;50.920;5.350;2022-10-31T01:02:13;14.10;99.90
41668;DHT22;27356;50.920;5.350;2022-10-31T01:04:39;14.10;99.90
41668;DHT22;27356;50.920;5.350;2022-10-31T01:07:05;14.10;99.90
41668;DHT22;27356;50.920;5.350;2022-10-31T01:09:30;14.10;99.90
41668;DHT22;27356;50.920;5.350;2022-10-31T01:11:56;14.00;99.90
41668;DHT22;27356;50.920;5.350;2022-10-31T01:14:21;14.10;99.90
41668;DHT22;27356;50.920;5.350;2022-10-31T01:16:47;14.00;99.90
41668;DHT22;27356;50.920;5.350;2022-10-31T01:19:12;14.00;99.90
41668;DHT22;27356;50.920;5.350;2022-10-31T01:21:38;13.90;99.90
41668;DHT22;27356;50.920;5.350;2022-10-31T01:24:03;13.80;99.90
41668;DHT22;27356;50.920;5.350;2022-10-31T01:26:30;13.60;99.90
41668;DHT22;27356;50.920;5.350;2022-10-31T01:28:57;13.50;99.90
41668;DHT22;27356;50.920;5.350;2022-10-31T01:31:24;13.40;99.90
41668;DHT22;27356;50.920;5.350;2022-10-31T01:33:50;13.30;99.90
41668;DHT22;27356;50.920;5.350;2022-10-31T01:36:17;13.30;99.90
41668;DHT22;27356;50.920;5.350;2022-10-31T01:38:44;13.40;99.90
41668;DHT22;27356;50.920;5.350;2022-10-31T01:41:10;13.50;99.90
41668;DHT22;27356;50.920;5.350;2022-10-31T01:43:42;13.50;99.90
41668;DHT22;27356;50.920;5.350;2022-10-31T01:46:08;13.50;99.90
41668;DHT22;27356;50.920;5.350;2022-10-31T01:48:34;13.40;99.90
41668;DHT22;27356;50.920;5.350;2022-10-31T01:50:59;13.40;99.90
41668;DHT22;27356;50.920;5.350;2022-10-31T01:53:25;13.40;99.90
41668;DHT22;27356;50.920;5.350;2022-10-31T01:55:50;13.40;99.90
41668;DHT22;27356;50.920;5.350;2022-10-31T01:58:19;13.40;99.90
41668;DHT22;27356;50.920;5.350;2022-10-31T02:00:45;13.30;99.90
41668;DHT22;27356;50.920;5.350;2022-10-31T02:03:12;13.30;99.90
41668;DHT22;27356;50.920;5.350;2022-10-31T02:05:38;13.30;99.90
41668;DHT22;27356;50.920;5.350;2022-10-31T02:08:08;13.30;99.90
41668;DHT22;27356;50.920;5.350;2022-10-31T02:10:36;13.30;99.90
41668;DHT22;27356;50.920;5.350;2022-10-31T02:13:02;13.20;99.90
41668;DHT22;27356;50.920;5.350;2022-10-31T02:15:28;13.20;99.90
41668;DHT22;27356;50.920;5.350;2022-10-31T02:17:55;13.20;99.90
41668;DHT22;27356;50.920;5.350;2022-10-31T02:20:21;13.10;99.90
41668;DHT22;27356;50.920;5.350;2022-10-31T02:30:23;13.20;99.90
41668;DHT22;27356;50.920;5.350;2022-10-31T02:32:52;13.10;99.90
41668;DHT22;27356;50.920;5.350;2022-10-31T02:38:09;12.90;99.90
41668;DHT22;27356;50.920;5.350;2022-10-31T02:40:39;12.80;99.90
41668;DHT22;27356;50.920;5.350;2022-10-31T02:43:19;12.70;99.90
41668;DHT22;27356;50.920;5.350;2022-10-31T02:48:18;12.70;99.90
41668;DHT22;27356;50.920;5.350;2022-10-31T02:50:47;12.70;99.90
41668;DHT22;27356;50.920;5.350;2022-10-31T02:53:15;12.70;99.90
41668;DHT22;27356;50.920;5.350;2022-10-31T02:58:17;12.70;99.90
41668;DHT22;27356;50.920;5.350;2022-10-31T03:11:01;12.80;99.90
41668;DHT22;27356;50.920;5.350;2022-10-31T03:18:32;12.80;99.90
41668;DHT22;27356;50.920;5.350;2022-10-31T03:21:04;12.80;99.90
41668;DHT22;27356;50.920;5.350;2022-10-31T03:23:31;12.80;99.90
41668;DHT22;27356;50.920;5.350;2022-10-31T03:25:57;12.80;99.90
41668;DHT22;27356;50.920;5.350;2022-10-31T03:28:29;12.80;99.90
41668;DHT22;27356;50.920;5.350;2022-10-31T03:30:55;12.80;99.90
41668;DHT22;27356;50.920;5.350;2022-10-31T03:33:23;12.70;99.90
41668;DHT22;27356;50.920;5.350;2022-10-31T03:35:51;12.70;99.90
41668;DHT22;27356;50.920;5.350;2022-10-31T03:38:18;12.80;99.90
41668;DHT22;27356;50.920;5.350;2022-10-31T03:40:45;12.70;99.90
41668;DHT22;27356;50.920;5.350;2022-10-31T03:43:13;12.80;99.90
41668;DHT22;27356;50.920;5.350;2022-10-31T03:45:41;12.70;99.90
41668;DHT22;27356;50.920;5.350;2022-10-31T03:48:08;12.70;99.90
41668;DHT22;27356;50.920;5.350;2022-10-31T03:50:38;12.70;99.90
41668;DHT22;27356;50.920;5.350;2022-10-31T03:53:06;12.70;99.90
41668;DHT22;27356;50.920;5.350;2022-10-31T03:58:24;12.60;99.90
41668;DHT22;27356;50.920;5.350;2022-10-31T04:00:51;12.50;99.90
41668;DHT22;27356;50.920;5.350;2022-10-31T04:03:19;12.50;99.90
41668;DHT22;27356;50.920;5.350;2022-10-31T04:05:47;12.50;99.90
41668;DHT22;27356;50.920;5.350;2022-10-31T04:08:17;12.50;99.90
41668;DHT22;27356;50.920;5.350;2022-10-31T04:10:44;12.40;99.90
41668;DHT22;27356;50.920;5.350;2022-10-31T04:13:13;12.40;99.90
41668;DHT22;27356;50.920;5.350;2022-10-31T04:15:39;12.20;99.90
41668;DHT22;27356;50.920;5.350;2022-10-31T04:18:06;12.20;99.90
41668;DHT22;27356;50.920;5.350;2022-10-31T04:20:33;12.20;99.90
41668;DHT22;27356;50.920;5.350;2022-10-31T04:22:59;12.20;99.90
41668;DHT22;27356;50.920;5.350;2022-10-31T04:25:25;12.30;99.90
41668;DHT22;27356;50.920;5.350;2022-10-31T04:27:50;12.40;99.90
41668;DHT22;27356;50.920;5.350;2022-10-31T04:30:16;12.30;99.90
41668;DHT22;27356;50.920;5.350;2022-10-31T04:32:41;12.20;99.90
41668;DHT22;27356;50.920;5.350;2022-10-31T04:35:07;12.00;99.90
41668;DHT22;27356;50.920;5.350;2022-10-31T04:37:32;12.10;99.90
41668;DHT22;27356;50.920;5.350;2022-10-31T04:39:58;12.20;99.90
41668;DHT22;27356;50.920;5.350;2022-10-31T04:42:23;12.20;99.90
41668;DHT22;27356;50.920;5.350;2022-10-31T04:44:49;12.20;99.90
41668;DHT22;27356;50.920;5.350;2022-10-31T04:47:14;12.10;99.90
41668;DHT22;27356;50.920;5.350;2022-10-31T04:49:40;12.10;99.90
41668;DHT22;27356;50.920;5.350;2022-10-31T04:52:05;12.10;99.90
41668;DHT22;27356;50.920;5.350;2022-10-31T04:54:32;12.10;99.90
41668;DHT22;27356;50.920;5.350;2022-10-31T04:56:57;12.10;99.90
41668;DHT22;27356;50.920;5.350;2022-10-31T04:59:23;12.10;99.90
41668;DHT22;27356;50.920;5.350;2022-10-31T05:01:48;12.10;99.90
41668;DHT22;27356;50.920;5.350;2022-10-31T05:04:14;12.00;99.90
41668;DHT22;27356;50.920;5.350;2022-10-31T05:06:39;12.00;99.90
41668;DHT22;27356;50.920;5.350;2022-10-31T05:09:05;11.90;99.90
41668;DHT22;27356;50.920;5.350;2022-10-31T05:11:30;11.90;99.90
41668;DHT22;27356;50.920;5.350;2022-10-31T05:13:56;11.90;99.90
41668;DHT22;27356;50.920;5.350;2022-10-31T05:16:21;11.80;99.90
41668;DHT22;27356;50.920;5.350;2022-10-31T05:18:47;11.80;99.90
41668;DHT22;27356;50.920;5.350;2022-10-31T05:21:12;11.70;99.90
41668;DHT22;27356;50.920;5.350;2022-10-31T05:23:38;11.60;99.90
41668;DHT22;27356;50.920;5.350;2022-10-31T05:26:03;11.70;99.90
41668;DHT22;27356;50.920;5.350;2022-10-31T05:28:29;11.70;99.90
41668;DHT22;27356;50.920;5.350;2022-10-31T05:30:54;11.70;99.90
41668;DHT22;27356;50.920;5.350;2022-10-31T05:33:20;11.80;99.90
41668;DHT22;27356;50.920;5.350;2022-10-31T05:35:45;11.80;99.90
41668;DHT22;27356;50.920;5.350;2022-10-31T05:38:11;11.80;99.90
41668;DHT22;27356;50.920;5.350;2022-10-31T05:40:36;11.90;99.90
41668;DHT22;27356;50.920;5.350;2022-10-31T05:43:02;12.00;99.90
41668;DHT22;27356;50.920;5.350;2022-10-31T05:45:27;12.00;99.90
41668;DHT22;27356;50.920;5.350;2022-10-31T05:47:54;12.00;99.90
41668;DHT22;27356;50.920;5.350;2022-10-31T05:50:20;11.90;99.90
41668;DHT22;27356;50.920;5.350;2022-10-31T05:52:46;12.00;99.90
41668;DHT22;27356;50.920;5.350;2022-10-31T05:55:11;11.90;99.90
41668;DHT22;27356;50.920;5.350;2022-10-31T05:57:37;12.00;99.90
41668;DHT22;27356;50.920;5.350;2022-10-31T06:00:03;12.10;99.90
41668;DHT22;27356;50.920;5.350;2022-10-31T06:02:30;12.10;99.90
41668;DHT22;27356;50.920;5.350;2022-10-31T06:05:00;12.20;99.90
41668;DHT22;27356;50.920;5.350;2022-10-31T06:07:25;12.30;99.90
41668;DHT22;27356;50.920;5.350;2022-10-31T06:09:51;12.30;99.90
41668;DHT22;27356;50.920;5.350;2022-10-31T06:12:16;12.20;99.90
41668;DHT22;27356;50.920;5.350;2022-10-31T06:14:42;12.20;99.90
41668;DHT22;27356;50.920;5.350;2022-10-31T06:17:07;12.10;99.90
41668;DHT22;27356;50.920;5.350;2022-10-31T06:19:33;12.10;99.90
41668;DHT22;27356;50.920;5.350;2022-10-31T06:21:58;12.10;99.90
41668;DHT22;27356;50.920;5.350;2022-10-31T06:24:24;12.10;99.90
41668;DHT22;27356;50.920;5.350;2022-10-31T06:26:50;12.00;99.90
41668;DHT22;27356;50.920;5.350;2022-10-31T06:29:15;12.00;99.90
41668;DHT22;27356;50.920;5.350;2022-10-31T06:31:40;12.00;99.90
41668;DHT22;27356;50.920;5.350;2022-10-31T06:34:06;12.00;99.90
41668;DHT22;27356;50.920;5.350;2022-10-31T06:36:32;11.80;99.90
41668;DHT22;27356;50.920;5.350;2022-10-31T06:38:57;11.80;99.90
41668;DHT22;27356;50.920;5.350;2022-10-31T06:41:23;11.80;99.90
41668;DHT22;27356;50.920;5.350;2022-10-31T06:43:48;11.80;99.90
41668;DHT22;27356;50.920;5.350;2022-10-31T06:46:14;11.80;99.90
41668;DHT22;27356;50.920;5.350;2022-10-31T06:48:42;11.70;99.90
41668;DHT22;27356;50.920;5.350;2022-10-31T06:51:08;11.70;99.90
41668;DHT22;27356;50.920;5.350;2022-10-31T06:53:33;11.80;99.90
41668;DHT22;27356;50.920;5.350;2022-10-31T06:55:59;11.80;99.90
41668;DHT22;27356;50.920;5.350;2022-10-31T06:58:24;11.80;99.90
41668;DHT22;27356;50.920;5.350;2022-10-31T07:00:50;11.80;99.90
41668;DHT22;27356;50.920;5.350;2022-10-31T07:03:16;11.90;99.90
41668;DHT22;27356;50.920;5.350;2022-10-31T07:05:42;11.90;99.90
41668;DHT22;27356;50.920;5.350;2022-10-31T07:08:09;11.90;99.90
41668;DHT22;27356;50.920;5.350;2022-10-31T07:10:36;11.90;99.90
41668;DHT22;27356;50.920;5.350;2022-10-31T07:13:03;11.90;99.90
41668;DHT22;27356;50.920;5.350;2022-10-31T07:15:29;11.90;99.90
41668;DHT22;27356;50.920;5.350;2022-10-31T07:18:04;11.90;99.90
41668;DHT22;27356;50.920;5.350;2022-10-31T07:20:30;11.90;99.90
41668;DHT22;27356;50.920;5.350;2022-10-31T07:22:56;11.90;99.90
41668;DHT22;27356;50.920;5.350;2022-10-31T07:25:22;12.00;99.90
41668;DHT22;27356;50.920;5.350;2022-10-31T07:27:47;12.00;99.90
41668;DHT22;27356;50.920;5.350;2022-10-31T07:30:13;12.20;99.90
41668;DHT22;27356;50.920;5.350;2022-10-31T07:32:39;12.10;99.90
41668;DHT22;27356;50.920;5.350;2022-10-31T07:35:06;12.20;99.90
41668;DHT22;27356;50.920;5.350;2022-10-31T07:37:32;12.20;99.90
41668;DHT22;27356;50.920;5.350;2022-10-31T07:39:57;12.30;99.90
41668;DHT22;27356;50.920;5.350;2022-10-31T07:42:23;12.40;99.90
41668;DHT22;27356;50.920;5.350;2022-10-31T07:44:48;12.40;99.90
41668;DHT22;27356;50.920;5.350;2022-10-31T07:47:14;12.50;99.90
41668;DHT22;27356;50.920;5.350;2022-10-31T07:49:39;12.60;99.90
41668;DHT22;27356;50.920;5.350;2022-10-31T07:52:05;12.50;99.90
41668;DHT22;27356;50.920;5.350;2022-10-31T07:54:31;12.70;99.90
41668;DHT22;27356;50.920;5.350;2022-10-31T07:56:56;12.80;99.90
41668;DHT22;27356;50.920;5.350;2022-10-31T07:59:22;12.80;99.90
41668;DHT22;27356;50.920;5.350;2022-10-31T08:01:47;12.70;99.90
41668;DHT22;27356;50.920;5.350;2022-10-31T08:04:13;12.60;99.90
41668;DHT22;27356;50.920;5.350;2022-10-31T08:06:38;12.80;99.90
41668;DHT22;27356;50.920;5.350;2022-10-31T08:09:04;13.00;99.90
41668;DHT22;27356;50.920;5.350;2022-10-31T08:11:29;13.10;99.90
41668;DHT22;27356;50.920;5.350;2022-10-31T08:13:55;13.30;99.90
41668;DHT22;27356;50.920;5.350;2022-10-31T08:16:20;13.50;99.90
41668;DHT22;27356;50.920;5.350;2022-10-31T08:18:46;13.90;99.90
41668;DHT22;27356;50.920;5.350;2022-10-31T08:21:12;14.10;99.90
41668;DHT22;27356;50.920;5.350;2022-10-31T08:23:38;14.10;99.90
41668;DHT22;27356;50.920;5.350;2022-10-31T08:26:03;14.10;99.90
41668;DHT22;27356;50.920;5.350;2022-10-31T08:28:31;14.30;99.90
41668;DHT22;27356;50.920;5.350;2022-10-31T08:30:57;14.60;99.90
41668;DHT22;27356;50.920;5.350;2022-10-31T08:33:22;14.50;99.90
41668;DHT22;27356;50.920;5.350;2022-10-31T08:35:48;14.30;99.90
41668;DHT22;27356;50.920;5.350;2022-10-31T08:38:14;14.30;99.90
41668;DHT22;27356;50.920;5.350;2022-10-31T08:40:39;14.30;99.90
41668;DHT22;27356;50.920;5.350;2022-10-31T08:43:06;14.30;99.90
41668;DHT22;27356;50.920;5.350;2022-10-31T08:45:32;14.60;99.90
41668;DHT22;27356;50.920;5.350;2022-10-31T08:47:59;14.50;99.90
41668;DHT22;27356;50.920;5.350;2022-10-31T08:50:25;14.70;99.90
41668;DHT22;27356;50.920;5.350;2022-10-31T08:52:51;14.90;99.90
41668;DHT22;27356;50.920;5.350;2022-10-31T08:55:17;15.30;99.90
41668;DHT22;27356;50.920;5.350;2022-10-31T08:57:42;15.40;99.90
41668;DHT22;27356;50.920;5.350;2022-10-31T09:00:08;15.50;99.90
41668;DHT22;27356;50.920;5.350;2022-10-31T09:02:34;15.40;99.90
41668;DHT22;27356;50.920;5.350;2022-10-31T09:04:59;15.20;99.90
41668;DHT22;27356;50.920;5.350;2022-10-31T09:07:25;15.40;99.90
41668;DHT22;27356;50.920;5.350;2022-10-31T09:09:50;15.40;99.90
41668;DHT22;27356;50.920;5.350;2022-10-31T09:12:16;15.50;99.90
41668;DHT22;27356;50.920;5.350;2022-10-31T09:14:41;15.30;99.90
41668;DHT22;27356;50.920;5.350;2022-10-31T09:17:07;15.00;99.90
41668;DHT22;27356;50.920;5.350;2022-10-31T09:19:32;15.20;99.90
41668;DHT22;27356;50.920;5.350;2022-10-31T09:21:58;15.20;99.90
41668;DHT22;27356;50.920;5.350;2022-10-31T09:24:23;15.60;99.90
41668;DHT22;27356;50.920;5.350;2022-10-31T09:26:49;15.60;99.90
41668;DHT22;27356;50.920;5.350;2022-10-31T09:29:14;15.70;99.90
41668;DHT22;27356;50.920;5.350;2022-10-31T09:31:40;15.80;99.90
41668;DHT22;27356;50.920;5.350;2022-10-31T09:34:05;15.70;99.90
41668;DHT22;27356;50.920;5.350;2022-10-31T09:36:31;15.60;99.90
41668;DHT22;27356;50.920;5.350;2022-10-31T09:38:56;15.70;99.90
41668;DHT22;27356;50.920;5.350;2022-10-31T09:44:03;15.40;99.90
41668;DHT22;27356;50.920;5.350;2022-10-31T09:51:43;15.20;99.90
41668;DHT22;27356;50.920;5.350;2022-10-31T09:54:14;15.30;99.90
41668;DHT22;27356;50.920;5.350;2022-10-31T09:56:41;15.30;99.90
41668;DHT22;27356;50.920;5.350;2022-10-31T09:59:12;15.40;99.90
41668;DHT22;27356;50.920;5.350;2022-10-31T10:07:11;15.90;99.90
41668;DHT22;27356;50.920;5.350;2022-10-31T10:09:38;16.10;99.90
41668;DHT22;27356;50.920;5.350;2022-10-31T10:12:13;16.40;99.90
41668;DHT22;27356;50.920;5.350;2022-10-31T10:17:19;17.00;99.90
41668;DHT22;27356;50.920;5.350;2022-10-31T10:19:50;17.20;99.90
41668;DHT22;27356;50.920;5.350;2022-10-31T10:30:20;17.10;99.90
41668;DHT22;27356;50.920;5.350;2022-10-31T10:35:19;16.80;99.90
41668;DHT22;27356;50.920;5.350;2022-10-31T10:37:45;16.90;99.90
41668;DHT22;27356;50.920;5.350;2022-10-31T10:42:37;17.30;99.90
41668;DHT22;27356;50.920;5.350;2022-10-31T10:45:21;17.50;99.90
41668;DHT22;27356;50.920;5.350;2022-10-31T10:48:15;17.70;99.90
41668;DHT22;27356;50.920;5.350;2022-10-31T10:50:44;17.80;99.90
41668;DHT22;27356;50.920;5.350;2022-10-31T10:58:26;18.00;99.90
41668;DHT22;27356;50.920;5.350;2022-10-31T11:00:52;17.70;99.90
41668;DHT22;27356;50.920;5.350;2022-10-31T11:03:18;17.70;99.90
41668;DHT22;27356;50.920;5.350;2022-10-31T11:05:54;17.90;99.90
41668;DHT22;27356;50.920;5.350;2022-10-31T11:08:38;17.70;99.90
41668;DHT22;27356;50.920;5.350;2022-10-31T11:13:29;17.90;99.90
41668;DHT22;27356;50.920;5.350;2022-10-31T11:15:59;18.00;99.90
41668;DHT22;27356;50.920;5.350;2022-10-31T11:18:26;17.90;99.90
41668;DHT22;27356;50.920;5.350;2022-10-31T11:20:54;17.80;99.90
41668;DHT22;27356;50.920;5.350;2022-10-31T11:23:21;18.00;99.90
41668;DHT22;27356;50.920;5.350;2022-10-31T11:25:47;17.90;99.90
41668;DHT22;27356;50.920;5.350;2022-10-31T11:28:13;17.80;99.90
41668;DHT22;27356;50.920;5.350;2022-10-31T11:30:47;17.70;99.90
41668;DHT22;27356;50.920;5.350;2022-10-31T11:33:17;17.60;99.90
41668;DHT22;27356;50.920;5.350;2022-10-31T11:35:43;17.90;99.90
41668;DHT22;27356;50.920;5.350;2022-10-31T11:38:12;18.00;99.90
41668;DHT22;27356;50.920;5.350;2022-10-31T11:40:40;18.10;99.90
41668;DHT22;27356;50.920;5.350;2022-10-31T11:43:16;18.10;99.90
41668;DHT22;27356;50.920;5.350;2022-10-31T11:45:42;17.80;99.90
41668;DHT22;27356;50.920;5.350;2022-10-31T11:48:18;18.00;99.90
41668;DHT22;27356;50.920;5.350;2022-10-31T11:50:50;18.00;99.90
41668;DHT22;27356;50.920;5.350;2022-10-31T11:53:26;18.40;99.90
41668;DHT22;27356;50.920;5.350;2022-10-31T11:56:03;18.60;99.90
41668;DHT22;27356;50.920;5.350;2022-10-31T11:58:30;18.70;99.90
41668;DHT22;27356;50.920;5.350;2022-10-31T12:00:56;18.70;99.90
41668;DHT22;27356;50.920;5.350;2022-10-31T12:05:49;18.70;99.90
41668;DHT22;27356;50.920;5.350;2022-10-31T12:08:17;18.60;99.90
41668;DHT22;27356;50.920;5.350;2022-10-31T12:10:49;18.50;99.90
41668;DHT22;27356;50.920;5.350;2022-10-31T12:15:47;18.60;99.90
41668;DHT22;27356;50.920;5.350;2022-10-31T12:23:13;18.60;99.90
41668;DHT22;27356;50.920;5.350;2022-10-31T12:28:45;18.50;99.90
41668;DHT22;27356;50.920;5.350;2022-10-31T12:33:51;18.80;99.90
41668;DHT22;27356;50.920;5.350;2022-10-31T12:36:27;18.70;99.90
41668;DHT22;27356;50.920;5.350;2022-10-31T12:52:11;18.90;99.90
41668;DHT22;27356;50.920;5.350;2022-10-31T12:57:35;18.80;99.90
41668;DHT22;27356;50.920;5.350;2022-10-31T13:00:03;18.90;99.90
41668;DHT22;27356;50.920;5.350;2022-10-31T13:04:56;18.80;99.90
41668;DHT22;27356;50.920;5.350;2022-10-31T13:07:24;18.90;99.90
41668;DHT22;27356;50.920;5.350;2022-10-31T13:10:05;19.10;99.90
41668;DHT22;27356;50.920;5.350;2022-10-31T13:12:34;19.20;99.90
41668;DHT22;27356;50.920;5.350;2022-10-31T13:15:03;19.30;99.90
41668;DHT22;27356;50.920;5.350;2022-10-31T13:17:30;19.40;99.90
41668;DHT22;27356;50.920;5.350;2022-10-31T13:20:20;19.20;99.90
41668;DHT22;27356;50.920;5.350;2022-10-31T13:22:44;19.20;99.90
41668;DHT22;27356;50.920;5.350;2022-10-31T13:25:13;19.10;99.90
41668;DHT22;27356;50.920;5.350;2022-10-31T13:30:12;19.20;99.90
41668;DHT22;27356;50.920;5.350;2022-10-31T13:38:09;19.10;99.90
41668;DHT22;27356;50.920;5.350;2022-10-31T13:40:47;19.20;99.90
41668;DHT22;27356;50.920;5.350;2022-10-31T13:45:51;19.20;99.90
41668;DHT22;27356;50.920;5.350;2022-10-31T13:48:18;19.20;99.90
41668;DHT22;27356;50.920;5.350;2022-10-31T13:50:59;19.30;99.90
41668;DHT22;27356;50.920;5.350;2022-10-31T13:56:29;19.40;99.90
41668;DHT22;27356;50.920;5.350;2022-10-31T13:59:03;19.40;99.90
41668;DHT22;27356;50.920;5.350;2022-10-31T14:01:30;19.40;99.90
41668;DHT22;27356;50.920;5.350;2022-10-31T14:04:01;19.50;99.90
41668;DHT22;27356;50.920;5.350;2022-10-31T14:06:34;19.40;99.90
41668;DHT22;27356;50.920;5.350;2022-10-31T14:09:00;19.40;99.90
41668;DHT22;27356;50.920;5.350;2022-10-31T14:11:26;19.60;99.90
41668;DHT22;27356;50.920;5.350;2022-10-31T14:13:53;19.70;99.90
41668;DHT22;27356;50.920;5.350;2022-10-31T14:16:22;19.70;99.90
41668;DHT22;27356;50.920;5.350;2022-10-31T14:18:50;19.70;99.90
41668;DHT22;27356;50.920;5.350;2022-10-31T14:23:49;19.50;99.90
41668;DHT22;27356;50.920;5.350;2022-10-31T14:26:19;19.30;99.90
41668;DHT22;27356;50.920;5.350;2022-10-31T14:28:46;19.50;99.90
41668;DHT22;27356;50.920;5.350;2022-10-31T14:33:52;19.40;99.90
41668;DHT22;27356;50.920;5.350;2022-10-31T14:36:20;19.30;99.90
41668;DHT22;27356;50.920;5.350;2022-10-31T14:41:29;19.60;99.90
41668;DHT22;27356;50.920;5.350;2022-10-31T14:51:41;19.70;99.90
41668;DHT22;27356;50.920;5.350;2022-10-31T14:54:11;19.60;99.90
41668;DHT22;27356;50.920;5.350;2022-10-31T14:56:46;19.60;99.90
41668;DHT22;27356;50.920;5.350;2022-10-31T14:59:13;19.50;99.90
41668;DHT22;27356;50.920;5.350;2022-10-31T15:01:40;19.50;99.90
41668;DHT22;27356;50.920;5.350;2022-10-31T15:04:17;19.50;99.90
41668;DHT22;27356;50.920;5.350;2022-10-31T15:06:45;19.40;99.90
41668;DHT22;27356;50.920;5.350;2022-10-31T15:09:24;19.40;99.90
41668;DHT22;27356;50.920;5.350;2022-10-31T15:11:50;19.30;99.90
41668;DHT22;27356;50.920;5.350;2022-10-31T15:14:26;19.20;99.90
41668;DHT22;27356;50.920;5.350;2022-10-31T15:16:51;19.10;99.90
41668;DHT22;27356;50.920;5.350;2022-10-31T15:19:24;18.80;99.90
41668;DHT22;27356;50.920;5.350;2022-10-31T15:21:51;18.80;99.90
41668;DHT22;27356;50.920;5.350;2022-10-31T15:24:17;18.70;99.90
41668;DHT22;27356;50.920;5.350;2022-10-31T15:26:50;18.70;99.90
41668;DHT22;27356;50.920;5.350;2022-10-31T15:29:17;18.70;99.90
41668;DHT22;27356;50.920;5.350;2022-10-31T15:31:49;18.80;99.90
41668;DHT22;27356;50.920;5.350;2022-10-31T15:34:16;18.90;99.90
41668;DHT22;27356;50.920;5.350;2022-10-31T15:36:47;18.70;99.90
41668;DHT22;27356;50.920;5.350;2022-10-31T15:39:13;18.50;99.90
41668;DHT22;27356;50.920;5.350;2022-10-31T15:41:44;18.50;99.90
41668;DHT22;27356;50.920;5.350;2022-10-31T15:44:14;18.50;99.90
41668;DHT22;27356;50.920;5.350;2022-10-31T15:46:40;18.50;99.90
41668;DHT22;27356;50.920;5.350;2022-10-31T15:49:23;18.40;99.90
41668;DHT22;27356;50.920;5.350;2022-10-31T15:51:51;18.40;99.90
41668;DHT22;27356;50.920;5.350;2022-10-31T15:54:16;18.30;99.90
41668;DHT22;27356;50.920;5.350;2022-10-31T15:56:42;18.30;99.90
41668;DHT22;27356;50.920;5.350;2022-10-31T15:59:13;18.30;99.90
41668;DHT22;27356;50.920;5.350;2022-10-31T16:01:42;18.40;99.90
41668;DHT22;27356;50.920;5.350;2022-10-31T16:06:35;18.50;99.90
41668;DHT22;27356;50.920;5.350;2022-10-31T16:09:01;18.30;99.90
41668;DHT22;27356;50.920;5.350;2022-10-31T16:11:30;18.30;99.90
41668;DHT22;27356;50.920;5.350;2022-10-31T16:16:22;18.20;99.90
41668;DHT22;27356;50.920;5.350;2022-10-31T16:18:49;18.00;99.90
41668;DHT22;27356;50.920;5.350;2022-10-31T16:21:15;17.90;99.90
41668;DHT22;27356;50.920;5.350;2022-10-31T16:23:44;17.80;99.90
41668;DHT22;27356;50.920;5.350;2022-10-31T16:26:13;17.70;99.90
41668;DHT22;27356;50.920;5.350;2022-10-31T16:28:49;17.70;99.90
41668;DHT22;27356;50.920;5.350;2022-10-31T16:31:15;17.60;99.90
41668;DHT22;27356;50.920;5.350;2022-10-31T16:33:41;17.40;99.90
41668;DHT22;27356;50.920;5.350;2022-10-31T16:38:51;17.30;99.90
41668;DHT22;27356;50.920;5.350;2022-10-31T16:41:17;17.20;99.90
41668;DHT22;27356;50.920;5.350;2022-10-31T16:43:42;17.20;99.90
41668;DHT22;27356;50.920;5.350;2022-10-31T16:46:08;17.10;99.90
41668;DHT22;27356;50.920;5.350;2022-10-31T16:48:37;17.10;99.90
41668;DHT22;27356;50.920;5.350;2022-10-31T16:51:03;17.10;99.90
41668;DHT22;27356;50.920;5.350;2022-10-31T16:53:28;17.00;99.90
41668;DHT22;27356;50.920;5.350;2022-10-31T16:55:54;17.00;99.90
41668;DHT22;27356;50.920;5.350;2022-10-31T16:58:24;16.90;99.90
41668;DHT22;27356;50.920;5.350;2022-10-31T17:00:50;16.80;99.90
41668;DHT22;27356;50.920;5.350;2022-10-31T17:03:16;16.70;99.90
41668;DHT22;27356;50.920;5.350;2022-10-31T17:05:42;16.70;99.90
41668;DHT22;27356;50.920;5.350;2022-10-31T17:08:07;16.70;99.90
41668;DHT22;27356;50.920;5.350;2022-10-31T17:10:33;16.70;99.90
41668;DHT22;27356;50.920;5.350;2022-10-31T17:12:59;16.70;99.90
41668;DHT22;27356;50.920;5.350;2022-10-31T17:15:27;16.70;99.90
41668;DHT22;27356;50.920;5.350;2022-10-31T17:17:53;16.60;99.90
41668;DHT22;27356;50.920;5.350;2022-10-31T17:20:21;16.50;99.90
41668;DHT22;27356;50.920;5.350;2022-10-31T17:22:46;16.30;99.90
41668;DHT22;27356;50.920;5.350;2022-10-31T17:25:13;16.20;99.90
41668;DHT22;27356;50.920;5.350;2022-10-31T17:27:39;16.10;99.90
41668;DHT22;27356;50.920;5.350;2022-10-31T17:30:05;16.10;99.90
41668;DHT22;27356;50.920;5.350;2022-10-31T17:32:30;16.10;99.90
41668;DHT22;27356;50.920;5.350;2022-10-31T17:34:56;16.10;99.90
41668;DHT22;27356;50.920;5.350;2022-10-31T17:37:21;16.10;99.90
41668;DHT22;27356;50.920;5.350;2022-10-31T17:39:47;16.10;99.90
41668;DHT22;27356;50.920;5.350;2022-10-31T17:42:12;16.10;99.90
41668;DHT22;27356;50.920;5.350;2022-10-31T17:44:38;16.00;99.90
41668;DHT22;27356;50.920;5.350;2022-10-31T17:47:03;15.90;99.90
41668;DHT22;27356;50.920;5.350;2022-10-31T17:49:29;15.90;99.90
41668;DHT22;27356;50.920;5.350;2022-10-31T17:51:54;15.90;99.90